x

Mid Superior 60nm North Northeast Hancock, Mi (45001) Wave Buoy

2:50am - Sun 21st Sep 2014 All times are CDT. -5 hours from GMT.

  • Sig Wave height 1.3ft
  • Swell Direction
  • Peak Period 3s
  • Average Period 3s
  • Wind
    13mph, 16mph gusts
  • Sea Temp 43°f
  • Air Temp 46°f
  • Sea Pressure 1007.9mb
  • Mid Superior 60nm North Northeast Hancock, Mi
  • Mid Superior 60nm North Northeast Hancock, Mi

More Historic Weather Station data

Upgrade to MSW Pro to gain access to the past 30 days of data for over 8000 Wavebouys and Weather Stations around the globe.

Join Pro

Comparision Forecast

View Surf forecast
   
Sun 09/21 2:50am 1.3ft 3s 3s 13 16 mph 1007.9mb 43f 46f
1:50am 1.3ft 3s 3s 9 11 mph 1007.8mb 43f 45f
12:50am 1.3ft 5s 3s 13 16 mph 1007.5mb 43f 46f
Sat 09/20 11:50pm 1.6ft 5s 4s 13 16 mph 1007.1mb 43f 47f
10:50pm 1.6ft 5s 4s 9
mph
1007.3mb 43f 47f
9:50pm 1.6ft 3s 3s 7 9 mph 1006.6mb 43f 48f
8:50pm 1.6ft 4s 3s 2 4 mph 1006.7mb 43f 48f
7:50pm 1.6ft 4s 4s 9 11 mph 1006.2mb 43f 47f
6:50pm 1.6ft 4s 4s 11 13 mph 1005.1mb 43f 47f
5:50pm 1.6ft 4s 3s 9
mph
1004.6mb 43f 47f
4:50pm 1.6ft 4s 3s 11 13 mph 1004.1mb 44f 49f
3:50pm 2ft 3s 3s 13
mph
1003.9mb 44f 49f
2:50pm 2ft 3s 3s 16 18 mph 1002.9mb 44f 49f
1:50pm 1.6ft 3s 3s 20 25 mph 1001.8mb 44f 50f
12:50pm 1.6ft 3s 3s 18
mph
1001.4mb 44f 50f
11:50am 1.6ft 5s 3s 13 16 mph 1000.5mb 44f 47f
10:50am 1.6ft 5s 4s 11 13 mph 1000.2mb 44f 48f
9:50am 1.6ft 5s 4s 9
mph
999.9mb 44f 48f
8:50am 2ft 5s 4s 9 13 mph 999.5mb 43f 48f
7:50am 2ft 5s 4s 7 9 mph 999.6mb 43f 49f
6:50am 2.5ft 6s 4s 11
mph
1000.5mb 43f 49f
5:50am 2.5ft 5s 4s 11 13 mph 1000mb 43f 47f
4:50am 2.5ft 5s 4s 11
mph
1000.2mb 43f 47f
3:50am 2.5ft 6s 4s 4 7 mph 1001mb 43f 48f
2:50am 3.5ft 6s 4s 7
mph
1001.9mb 44f 47f
1:50am 3.5ft 6s 5s 7 9 mph 1002.2mb 44f 48f
Fri 09/19 11:50pm 3.5ft 6s 4s 13 16 mph 1002mb 44f 48f
10:50pm 3.5ft 6s 5s 13
mph
1002.3mb 44f 48f
9:50pm 3.5ft 6s 5s 11
mph
1002.7mb 44f 48f
8:50pm 3.5ft 6s 5s 16 18 mph 1002.7mb 44f 48f
7:50pm 3.5ft 6s 5s 13
mph
1003.3mb 44f 47f
6:50pm 4.5ft 6s 5s 11 13 mph 1003.8mb 43f 47f
5:50pm 4.5ft 6s 5s 11 13 mph 1004.7mb 43f 49f
3:50pm 4.5ft 6s 5s 20 22 mph 1004.5mb 43f 49f
2:50pm 6ft 6s 5s 20 25 mph 1006mb 43f 49f
1:50pm 5.5ft 6s 5s 25 29 mph 1005.8mb 43f 49f
12:50pm 5ft 6s 5s 25 27 mph 1007.8mb 43f 49f
11:50am 5ft 5s 5s 22 25 mph 1009.7mb 44f 48f
10:50am 5ft 6s 4s 20 22 mph 1011.1mb 44f 48f
9:50am 4ft 6s 4s 22 27 mph 1011.1mb 44f 48f
8:50am 3ft 5s 4s 22 27 mph 1011.8mb 43f 48f
7:50am 2.5ft 5s 4s 18 20 mph 1013.3mb 43f 47f
6:50am 3ft 5s 4s 11 13 mph 1014.8mb 43f 46f
5:50am 2.5ft 5s 4s 16 18 mph 1015mb 43f 47f
4:50am 3ft 5s 4s 16 18 mph 1015.8mb 43f 46f
3:50am 2.5ft 4s 4s 13 16 mph 1016.2mb 43f 46f
2:50am 2.5ft 4s 4s 18 20 mph 1016.8mb 43f 47f
1:50am 2.5ft 4s 4s 13 16 mph 1018.1mb 43f 46f
12:50am 2.5ft 4s 4s 13 16 mph 1017.5mb 43f 45f
Thu 09/18 11:50pm 2.5ft 4s 4s 16 18 mph 1018.3mb 43f 44f
10:50pm 2.5ft 4s 4s 16 18 mph 1019.4mb 43f 44f
9:50pm 2.5ft 4s 4s 16 18 mph 1020.2mb 43f 44f
8:50pm 2ft 4s 3s 16 18 mph 1020.6mb 43f 43f
7:50pm 2ft 4s 3s 13 16 mph 1020.9mb 43f 43f
6:50pm 1.6ft 4s 3s 13 16 mph 1020.9mb 43f 43f
5:50pm 1.6ft 4s 3s 13 16 mph 1021.4mb 43f 43f
4:50pm 1.3ft 4s 3s 13 16 mph 1022mb 43f 43f
3:50pm 1.6ft 3s 3s 13
mph
1022.5mb 43f 43f
2:50pm 1.3ft 3s 3s 13 16 mph 1023.3mb 43f 43f
1:50pm 1.3ft 3s 3s 11 16 mph 1024.1mb 44f 43f
12:50pm 1ft 3s 3s 13 16 mph 1024.3mb 44f 43f
11:50am 1ft 3s 3s 11 13 mph 1024.5mb 44f 43f
10:50am 0.7ft  -  3s 11 13 mph 1024.4mb 44f 43f
9:50am 0.7ft  -  3s 11 13 mph 1024.5mb 44f 43f
8:50am 0.7ft  -  3s 9 11 mph 1024.2mb 44f 43f
7:50am 0.7ft  -  3s 7
mph
1023.9mb 44f 43f
6:50am 0.7ft  -  3s 4 7 mph 1023.7mb 43f 43f
5:50am 0.7ft  -  3s 4 7 mph 1023.4mb 43f 42f
4:50am 1ft 4s 3s 4 7 mph 1023.1mb 43f 43f
3:50am 1ft 4s 3s 4 7 mph 1022.5mb 43f 43f
2:50am 1.3ft 4s 3s 4 7 mph 1022.6mb 43f 43f
1:50am 1.3ft 4s 4s 7 9 mph 1022.2mb 43f 43f
12:50am 1.6ft 5s 4s 7 9 mph 1022.1mb 43f 43f
Wed 09/17 11:50pm 1.3ft 5s 4s 11 13 mph 1021.7mb 43f 43f
10:50pm 1.6ft 5s 4s 7 11 mph 1021.9mb 43f 43f
9:50pm 2ft 5s 4s 7 9 mph 1021.6mb 43f 43f
8:50pm 2ft 5s 4s 4 7 mph 1021.3mb 44f 43f
7:50pm 2ft 5s 4s 7
mph
1020.9mb 44f 42f
6:50pm 2.5ft 5s 4s 9 11 mph 1020.3mb 44f 42f
5:50pm 2.5ft 5s 4s 13 16 mph 1019.7mb 44f 42f
4:50pm 3ft 5s 4s 13 16 mph 1019.3mb 44f 42f
3:50pm 3.5ft 6s 4s 13 16 mph 1018.9mb 44f 42f
2:50pm 3.5ft 5s 4s 16 18 mph 1018.3mb 43f 41f
1:50pm 3.5ft 5s 4s 18 20 mph 1017.9mb 43f 40f
12:50pm 3.5ft 6s 4s 18 20 mph 1017.6mb 43f 40f
11:50am 4ft 5s 4s 18 20 mph 1017mb 43f 40f
10:50am 4ft 6s 4s 20 22 mph 1016.5mb 43f 40f
9:50am 4ft 5s 4s 20 25 mph 1015.8mb 43f 40f